KEEN/EEN METAR and TAF weather

Enter ICAO airport designator
Station Type Date Time Source
KEEN METAR 2021/10/22 18:56 UTC NOAA

KEEN 221856Z AUTO 23007KT 10SM OVC050 18/08 A2984 RMK AO2 SLP108 T01780083 $


Station Type Date Time Source
KEEN Decoded METAR 2021/10/22 18:56 UTC NOAA

Keene, Dillant-Hopkins Airport, NH, United States (KEEN) 42-54N 072-16W
Oct 22, 2021 - 02:56 PM EDT / 2021.10.22 1856 UTC
Wind: from the SW (230 degrees) at 8 MPH (7 KT):0
Visibility: 10 mile(s):0
Sky conditions: overcast
Temperature: 64.0 F (17.8 C)
Dew Point: 46.9 F (8.3 C)
Relative Humidity: 53%
Pressure (altimeter): 29.84 in. Hg (1010 hPa)
ob: KEEN 221856Z AUTO 23007KT 10SM OVC050 18/08 A2984 RMK AO2 SLP108 T01780083
cycle: 19

Station Type Date Time Source
KEEN TAF UTC NOAA

Error!

Example: see airport list